Time;durP1;ratioP1;P1;durP2;ratioP2;P2;SDS_P1;SDS_P2;PMS_P1;PMS_P2;Temp;Humidity;BMP_temperature;BMP_pressure;BME280_temperature;BME280_humidity;BME280_pressure;Samples;Min_cycle;Max_cycle;Signal;HPM_P1;HPM_P2
2022/10/26 00:02:41;;;;;;;2.20;0.80;;;;;;;17.93;64.55;101442.81;6382060;22;20021;-88
2022/10/26 00:05:06;;;;;;;2.00;1.13;;;;;;;17.93;64.82;101445.41;6351650;22;20006;-88
2022/10/26 00:07:32;;;;;;;1.60;0.90;;;;;;;17.93;64.65;101442.81;6321107;22;20045;-90
2022/10/26 00:09:57;;;;;;;1.73;0.90;;;;;;;17.93;64.79;101445.41;6344206;22;20017;-89
2022/10/26 00:12:23;;;;;;;1.88;0.98;;;;;;;17.93;64.67;101436.75;6374872;22;20018;-88
2022/10/26 00:14:48;;;;;;;1.95;1.00;;;;;;;17.93;64.60;101435.00;6321730;22;20006;-91
2022/10/26 00:17:14;;;;;;;1.98;0.95;;;;;;;17.93;64.95;101435.00;6346443;22;20010;-89
2022/10/26 00:19:40;;;;;;;1.23;0.80;;;;;;;17.92;64.69;101420.25;6322548;22;20022;-90
2022/10/26 00:22:06;;;;;;;1.65;0.93;;;;;;;17.93;64.63;101428.94;6296453;22;20018;-90
2022/10/26 00:24:31;;;;;;;1.80;0.90;;;;;;;17.92;64.77;101428.09;6296426;22;20008;-90
2022/10/26 00:26:57;;;;;;;1.45;0.90;;;;;;;17.91;64.72;101418.53;6300456;22;20068;-88
2022/10/26 00:29:24;;;;;;;1.30;0.68;;;;;;;17.92;64.48;101416.78;6334329;22;20011;-90
2022/10/26 00:31:50;;;;;;;1.23;0.80;;;;;;;17.92;64.60;101416.78;6296974;22;20013;-90
2022/10/26 00:41:09;;;;;;;1.42;0.70;;;;;;;17.89;64.45;101402.88;6380702;22;20021;-89
2022/10/26 00:43:37;;;;;;;1.85;0.90;;;;;;;17.89;64.81;101400.28;6374971;22;20116;-90
2022/10/26 00:46:07;;;;;;;1.13;0.80;;;;;;;17.91;64.81;101400.28;6349340;22;20378;-89
2022/10/26 00:49:01;;;;;;;1.55;1.00;;;;;;;17.91;64.72;101396.81;6349444;22;20002;-90
2022/10/26 00:51:45;;;;;;;;;;;;;;;17.91;64.67;101399.44;6376533;22;20071;-87
2022/10/26 00:54:17;;;;;;;1.42;0.70;;;;;;;17.90;64.49;101388.16;6348293;22;19973;-89
2022/10/26 00:56:53;;;;;;;0.90;0.60;;;;;;;17.88;64.58;101384.69;6349492;22;20081;-89
2022/10/26 00:59:21;;;;;;;1.80;0.85;;;;;;;17.89;64.82;101387.25;6378387;22;20405;-90
2022/10/26 01:01:48;;;;;;;1.70;0.90;;;;;;;17.87;64.50;101375.97;6353710;22;19998;-89
2022/10/26 01:04:14;;;;;;;1.77;0.93;;;;;;;17.87;64.66;101382.94;6351953;22;19998;-89
2022/10/26 01:06:41;;;;;;;1.40;0.80;;;;;;;17.89;64.58;101383.81;6352090;22;20055;-90
2022/10/26 01:09:09;;;;;;;2.75;0.75;;;;;;;17.89;64.51;101376.84;6328628;22;20013;-89
2022/10/26 01:11:34;;;;;;;1.35;0.80;;;;;;;17.88;64.50;101379.47;6313661;22;20036;-88
2022/10/26 01:14:02;;;;;;;2.72;0.93;;;;;;;17.86;64.61;101374.25;6302876;22;20013;-90
2022/10/26 01:36:57;;;;;;;3.17;0.80;;;;;;;17.85;64.48;101358.63;6387935;22;20514;-89
2022/10/26 01:39:38;;;;;;;2.17;0.85;;;;;;;17.86;64.45;101357.78;6356796;22;20415;-89
2022/10/26 01:42:06;;;;;;;1.88;0.80;;;;;;;17.85;64.49;101358.63;6356242;22;20017;-89
2022/10/26 01:51:17;;;;;;;1.73;0.85;;;;;;;17.86;64.50;101339.56;6391433;22;20496;-88
2022/10/26 02:00:32;;;;;;;1.85;0.90;;;;;;;17.84;64.67;101329.13;6390610;22;20103;-87
2022/10/26 02:20:06;;;;;;;1.02;0.70;;;;;;;17.85;64.39;101306.56;6391422;22;20084;-89
2022/10/26 02:22:46;;;;;;;1.83;0.70;;;;;;;17.84;64.41;101307.44;6360223;22;20003;-89
2022/10/26 02:25:17;;;;;;;1.38;0.80;;;;;;;17.83;64.18;101311.81;6358213;22;20045;-87
2022/10/26 02:27:49;;;;;;;1.45;0.85;;;;;;;17.83;64.43;101318.72;6358143;22;20028;-89
2022/10/26 02:30:54;;;;;;;2.33;0.80;;;;;;;17.84;64.48;101317.88;6354537;22;20093;-89
2022/10/26 02:33:21;;;;;;;1.08;0.68;;;;;;;17.82;64.57;101314.41;6359574;22;20024;-88
2022/10/26 02:36:10;;;;;;;1.25;0.70;;;;;;;17.83;64.52;101316.13;6337616;22;19991;-82
2022/10/26 02:38:37;;;;;;;0.70;0.60;;;;;;;17.83;64.25;101310.91;6382059;22;20028;-88
2022/10/26 02:41:04;;;;;;;0.90;0.70;;;;;;;17.82;64.53;101304.00;6383704;22;20326;-88
2022/10/26 02:43:37;;;;;;;1.05;0.75;;;;;;;17.83;64.34;101306.59;6328806;22;20021;-90
2022/10/26 02:46:07;;;;;;;1.17;0.85;;;;;;;17.83;64.56;101298.78;6354217;22;20022;-89
2022/10/26 02:48:33;;;;;;;1.35;0.80;;;;;;;17.82;64.35;101289.22;6379596;22;20018;-88
2022/10/26 02:51:36;;;;;;;1.20;0.70;;;;;;;17.83;64.51;101293.59;6327249;22;20319;-89
2022/10/26 03:00:48;;;;;;;1.48;0.73;;;;;;;17.81;64.37;101295.28;6385051;22;20055;-89
2022/10/26 03:03:14;;;;;;;2.28;0.68;;;;;;;17.82;64.44;101294.44;6356120;22;20338;-89
2022/10/26 03:05:42;;;;;;;1.73;0.70;;;;;;;17.83;64.54;101297.91;6305162;22;20006;-88
2022/10/26 03:08:07;;;;;;;2.55;0.82;;;;;;;17.80;64.39;101298.75;6381613;22;20013;-89
2022/10/26 03:11:00;;;;;;;1.33;0.73;;;;;;;17.81;64.41;101295.28;6328127;22;20007;-89
2022/10/26 03:13:25;;;;;;;1.30;0.82;;;;;;;17.82;64.52;101294.44;6381916;22;20299;-90
2022/10/26 03:15:55;;;;;;;1.95;0.88;;;;;;;17.80;64.45;101283.13;6303002;22;20041;-90
2022/10/26 03:18:20;;;;;;;0.90;0.70;;;;;;;17.80;64.23;101285.72;6360007;22;20006;-88
2022/10/26 03:20:45;;;;;;;1.52;0.80;;;;;;;17.81;64.54;101290.09;6306780;22;20470;-89
2022/10/26 03:23:11;;;;;;;1.50;0.70;;;;;;;17.81;64.52;101281.38;6304366;22;20014;-89
2022/10/26 03:25:37;;;;;;;1.83;0.70;;;;;;;17.81;64.40;101284.88;6329850;22;20069;-88
2022/10/26 03:28:04;;;;;;;1.60;0.77;;;;;;;17.81;64.36;101281.38;6328722;22;20009;-89
2022/10/26 03:30:30;;;;;;;1.35;0.65;;;;;;;17.81;64.38;101279.66;6380230;22;20013;-88
2022/10/26 03:32:56;;;;;;;0.80;0.60;;;;;;;17.81;64.33;101279.66;6357644;22;20010;-89
2022/10/26 03:35:22;;;;;;;0.63;0.50;;;;;;;17.80;64.46;101270.09;6355276;22;20021;-89
2022/10/26 03:37:48;;;;;;;0.85;0.60;;;;;;;17.79;64.46;101265.78;6350616;22;20048;-90
2022/10/26 03:40:13;;;;;;;0.88;0.65;;;;;;;17.80;64.50;101267.50;6349797;22;20002;-90
2022/10/26 03:42:39;;;;;;;0.82;0.65;;;;;;;17.81;64.25;101265.75;6376750;22;20418;-90
2022/10/26 03:45:06;;;;;;;0.90;0.68;;;;;;;17.80;64.43;101270.09;6348581;22;20081;-91
2022/10/26 03:47:31;;;;;;;1.42;0.70;;;;;;;17.80;64.45;101264.03;6348222;22;19998;-90
2022/10/26 03:49:57;;;;;;;1.13;0.73;;;;;;;17.79;64.42;101264.91;6348281;22;19998;-92
2022/10/26 03:52:23;;;;;;;1.50;0.70;;;;;;;17.80;64.47;101259.69;6322580;22;20002;-89
2022/10/26 03:54:49;;;;;;;2.20;0.90;;;;;;;17.80;64.39;101264.03;6323048;22;20010;-89
2022/10/26 03:57:15;;;;;;;1.10;0.63;;;;;;;17.80;64.28;101266.66;6295965;22;20002;-90
2022/10/26 04:06:16;;;;;;;1.02;0.60;;;;;;;17.79;64.38;101263.19;6384897;22;20094;-90
2022/10/26 04:08:42;;;;;;;1.15;0.73;;;;;;;17.80;64.35;101266.66;6350775;22;20006;-89
2022/10/26 04:11:07;;;;;;;1.15;0.60;;;;;;;17.78;64.45;101264.03;6326210;22;20014;-89
2022/10/26 04:13:33;;;;;;;2.70;0.80;;;;;;;17.78;64.28;101255.38;6352734;22;20006;-89
2022/10/26 04:15:58;;;;;;;1.25;0.60;;;;;;;17.78;64.27;101253.63;6328991;22;20013;-89
2022/10/26 04:18:24;;;;;;;0.80;0.60;;;;;;;17.78;64.46;101252.75;6305592;22;20014;-89
2022/10/26 04:20:49;;;;;;;1.33;0.70;;;;;;;17.78;64.42;101257.97;6356710;22;20311;-90
2022/10/26 04:23:17;;;;;;;1.45;0.60;;;;;;;17.79;64.48;101254.47;6353440;22;20017;-89
2022/10/26 04:25:43;;;;;;;1.52;0.68;;;;;;;17.77;64.53;101251.91;6351466;22;20070;-89
2022/10/26 04:28:10;;;;;;;1.30;0.70;;;;;;;17.79;64.51;101260.59;6324654;22;20010;-89
2022/10/26 04:30:37;;;;;;;1.10;0.70;;;;;;;17.77;64.43;101251.03;6324010;22;20014;-89
2022/10/26 04:33:03;;;;;;;1.02;0.73;;;;;;;17.78;64.44;101252.75;6297442;22;20006;-91
2022/10/26 04:35:30;;;;;;;1.00;0.70;;;;;;;17.77;64.40;101248.41;6349096;22;20066;-89
2022/10/26 04:41:18;;;;;;;1.30;0.77;;;;;;;17.77;64.20;101249.31;6376584;22;20017;-90
2022/10/26 04:43:44;;;;;;;0.80;0.60;;;;;;;17.76;64.33;101246.69;6337164;22;20054;-88
2022/10/26 04:52:49;;;;;;;1.52;0.65;;;;;;;17.78;64.32;101255.38;6362225;22;20026;-89
2022/10/26 04:55:14;;;;;;;0.90;0.70;;;;;;;17.76;64.31;101259.72;6351687;22;20041;-91
2022/10/26 05:01:40;;;;;;;1.38;0.60;;;;;;;17.78;64.32;101255.38;6387267;22;20021;-88
2022/10/26 05:04:05;;;;;;;1.35;0.77;;;;;;;17.76;64.39;101257.97;6358438;22;20101;-89
2022/10/26 05:06:30;;;;;;;2.40;1.20;;;;;;;17.75;64.36;101251.03;6329422;22;20087;-89
2022/10/26 05:08:56;;;;;;;2.95;1.10;;;;;;;17.77;64.33;101254.50;6319537;22;20164;-85
2022/10/26 05:11:21;;;;;;;2.80;1.30;;;;;;;17.77;64.41;101246.69;6317886;22;20002;-90
2022/10/26 05:13:48;;;;;;;2.85;1.33;;;;;;;17.76;64.38;101244.94;6320670;22;20030;-88
2022/10/26 05:16:15;;;;;;;4.60;1.58;;;;;;;17.77;64.21;101241.50;6321855;22;20002;-84
2022/10/26 05:18:40;;;;;;;3.25;1.25;;;;;;;17.76;64.22;101241.50;6373203;22;20002;-89
2022/10/26 05:21:06;;;;;;;3.53;1.40;;;;;;;17.77;64.41;101240.59;6321256;22;20114;-86
2022/10/26 05:23:31;;;;;;;3.63;1.38;;;;;;;17.76;64.32;101234.53;6319614;22;20014;-84
2022/10/26 05:25:57;;;;;;;3.58;1.52;;;;;;;17.76;64.43;101236.28;6319154;22;20014;-85
2022/10/26 05:28:22;;;;;;;3.30;1.35;;;;;;;17.76;64.40;101231.94;6345091;22;20443;-84
2022/10/26 05:30:47;;;;;;;4.53;1.75;;;;;;;17.76;64.09;101237.16;6313345;22;20007;-85
2022/10/26 05:33:13;;;;;;;4.75;1.40;;;;;;;17.77;64.53;101236.28;6312322;22;20013;-85
2022/10/26 05:35:39;;;;;;;5.15;1.67;;;;;;;17.76;64.45;101233.69;6370258;22;20014;-85
2022/10/26 05:38:16;;;;;;;3.17;1.40;;;;;;;17.75;64.36;101230.22;6344256;22;20009;-85
2022/10/26 05:40:52;;;;;;;4.47;1.52;;;;;;;17.74;64.23;101215.47;6344454;22;20002;-85
2022/10/26 05:43:19;;;;;;;4.05;1.58;;;;;;;17.76;64.38;101220.66;6344749;22;19998;-85
2022/10/26 05:45:45;;;;;;;2.88;1.48;;;;;;;17.76;64.43;101221.53;6323106;22;20002;-87
2022/10/26 05:48:10;;;;;;;4.68;1.65;;;;;;;17.76;64.31;101229.34;6381600;22;20002;-88
2022/10/26 05:50:35;;;;;;;3.38;1.60;;;;;;;17.76;64.56;101231.94;6354772;22;20017;-87
2022/10/26 05:53:01;;;;;;;8.35;2.00;;;;;;;17.76;64.45;101231.94;6352724;22;20020;-86
2022/10/26 05:55:27;;;;;;;5.22;2.30;;;;;;;17.77;64.41;101244.09;6349539;22;19998;-87
2022/10/26 05:57:52;;;;;;;6.35;1.90;;;;;;;17.78;64.36;101237.16;6354073;22;20002;-87
2022/10/26 06:00:37;;;;;;;5.30;2.05;;;;;;;17.78;64.24;101226.72;6326436;22;20011;-88
2022/10/26 06:03:29;;;;;;;6.05;2.05;;;;;;;17.76;64.45;101231.94;6357215;22;19998;-89
2022/10/26 06:05:57;;;;;;;4.38;2.17;;;;;;;17.77;64.26;101219.78;6352704;22;20081;-85
2022/10/26 06:08:25;;;;;;;5.55;2.10;;;;;;;17.76;64.33;101224.13;6327003;22;20006;-86
2022/10/26 06:10:51;;;;;;;4.88;2.00;;;;;;;17.76;64.43;101223.28;6332479;22;20063;-88
2022/10/26 06:13:17;;;;;;;6.85;2.35;;;;;;;17.76;64.56;101239.75;6351862;22;20002;-89
2022/10/26 06:16:21;;;;;;;5.38;2.10;;;;;;;17.76;64.51;101239.75;6293776;22;20013;-88
2022/10/26 06:22:02;;;;;;;4.35;2.20;;;;;;;17.77;64.38;101243.22;6372906;22;20022;-89
2022/10/26 06:24:39;;;;;;;5.40;2.20;;;;;;;17.75;64.47;101243.25;6377664;22;20002;-90
2022/10/26 06:27:24;;;;;;;5.80;2.22;;;;;;;17.77;64.51;101238.00;6349552;22;20002;-89
2022/10/26 06:30:12;;;;;;;4.47;1.88;;;;;;;17.76;64.50;101239.75;6380594;22;20014;-89
2022/10/26 06:32:39;;;;;;;6.50;2.13;;;;;;;17.76;64.33;101252.75;6351922;22;20003;-89
2022/10/26 06:35:38;;;;;;;6.47;2.08;;;;;;;17.77;64.40;101238.00;6350004;22;20013;-88
2022/10/26 06:38:12;;;;;;;6.57;2.22;;;;;;;17.75;64.40;101231.97;6349918;22;20006;-90
2022/10/26 06:40:41;;;;;;;5.28;2.03;;;;;;;17.75;64.67;101235.44;6352872;22;20037;-89
2022/10/26 06:43:22;;;;;;;3.42;1.77;;;;;;;17.76;64.27;101228.47;6349128;22;20002;-89
2022/10/26 06:46:14;;;;;;;5.22;2.20;;;;;;;17.77;64.31;101244.09;6355477;22;20057;-89
2022/10/26 06:49:00;;;;;;;4.05;1.92;;;;;;;17.78;64.22;101242.34;6348199;22;20010;-89
2022/10/26 06:51:28;;;;;;;5.47;2.15;;;;;;;17.78;64.44;101243.22;6364139;22;20026;-87
2022/10/26 06:54:05;;;;;;;4.93;2.13;;;;;;;17.79;64.32;101249.28;6387791;22;20374;-89
2022/10/26 06:56:31;;;;;;;5.72;2.20;;;;;;;17.79;64.55;101244.97;6348881;22;20006;-93
2022/10/26 06:59:05;;;;;;;4.20;1.90;;;;;;;17.79;64.37;101250.16;6375139;22;20490;-90
2022/10/26 07:01:31;;;;;;;6.57;2.10;;;;;;;17.81;64.42;101253.63;6374764;22;20092;-90
2022/10/26 07:03:56;;;;;;;3.88;1.92;;;;;;;17.81;64.36;101255.34;6347666;22;20011;-87
2022/10/26 07:06:21;;;;;;;4.22;1.80;;;;;;;17.82;64.00;101260.59;6296255;22;20445;-90
2022/10/26 07:08:49;;;;;;;3.65;1.88;;;;;;;17.83;64.33;101254.53;6290864;22;20102;-90
2022/10/26 07:11:14;;;;;;;3.58;1.88;;;;;;;17.85;64.10;101254.50;6342281;22;20057;-91
2022/10/26 07:13:39;;;;;;;5.78;1.95;;;;;;;17.85;64.32;101259.69;6294393;22;20007;-90
2022/10/26 07:16:05;;;;;;;4.57;1.90;;;;;;;17.85;64.26;101244.09;6290060;22;20031;-88
2022/10/26 07:18:30;;;;;;;4.32;1.73;;;;;;;17.85;63.96;101247.53;6346784;22;20017;-89
2022/10/26 07:20:57;;;;;;;3.53;1.65;;;;;;;17.85;64.00;101250.16;6346202;22;20486;-89
2022/10/26 07:23:23;;;;;;;5.38;2.10;;;;;;;17.85;64.26;101264.91;6373009;22;20338;-89
2022/10/26 07:25:49;;;;;;;3.38;1.67;;;;;;;17.86;64.19;101274.47;6315589;22;20067;-90
2022/10/26 07:28:14;;;;;;;4.88;1.83;;;;;;;17.86;64.23;101283.13;6315118;22;20015;-90
2022/10/26 07:30:40;;;;;;;3.88;1.85;;;;;;;17.87;64.27;101279.66;6320490;22;20310;-90
2022/10/26 07:33:13;;;;;;;3.70;1.77;;;;;;;17.87;64.00;101269.22;6321071;22;20100;-91
2022/10/26 07:35:39;;;;;;;5.95;1.80;;;;;;;17.91;64.16;101269.25;6363871;22;19998;-90
2022/10/26 07:38:05;;;;;;;3.13;1.60;;;;;;;17.91;64.07;101275.31;6315543;22;20007;-89
2022/10/26 07:40:30;;;;;;;3.75;1.90;;;;;;;17.92;64.27;101283.97;6346125;22;20085;-89
2022/10/26 07:42:58;;;;;;;3.90;2.05;;;;;;;17.92;64.25;101292.69;6341339;22;20384;-88
2022/10/26 07:45:24;;;;;;;3.33;1.67;;;;;;;17.93;64.05;101302.22;6343512;22;20056;-90
2022/10/26 07:47:50;;;;;;;5.30;2.00;;;;;;;17.95;64.06;101299.59;6345131;22;19994;-89
2022/10/26 07:50:15;;;;;;;3.13;1.73;;;;;;;17.95;63.98;101318.69;6345972;22;20045;-88
2022/10/26 07:52:41;;;;;;;4.38;1.70;;;;;;;17.95;63.93;101317.84;6319635;22;20097;-89
2022/10/26 07:55:08;;;;;;;3.30;1.52;;;;;;;17.95;64.14;101315.22;6346590;22;20002;-91
2022/10/26 07:57:34;;;;;;;3.97;1.80;;;;;;;17.96;63.88;101316.94;6347725;22;19998;-90
2022/10/26 07:59:59;;;;;;;3.58;1.40;;;;;;;18.00;64.13;101314.31;6345994;22;20487;-89
2022/10/26 08:02:25;;;;;;;2.90;1.40;;;;;;;18.08;63.78;101316.91;6293605;22;20010;-89
2022/10/26 08:04:50;;;;;;;3.65;1.63;;;;;;;18.18;63.75;101328.16;6344930;22;20010;-89
2022/10/26 08:07:16;;;;;;;3.33;1.65;;;;;;;18.24;63.93;101325.53;6318717;22;20014;-90
2022/10/26 08:09:41;;;;;;;2.65;1.50;;;;;;;18.29;63.69;101336.78;6319623;22;20078;-90
2022/10/26 08:12:06;;;;;;;2.72;1.48;;;;;;;18.33;63.59;101330.69;6318623;22;20357;-90
2022/10/26 08:14:32;;;;;;;3.08;1.60;;;;;;;18.33;63.64;101329.81;6319484;22;20002;-89
2022/10/26 08:16:57;;;;;;;4.32;1.70;;;;;;;18.36;63.62;101324.63;6302486;22;20006;-84
2022/10/26 08:19:23;;;;;;;2.53;1.30;;;;;;;18.35;63.57;101331.53;6328347;22;20063;-90
2022/10/26 08:21:48;;;;;;;4.22;1.65;;;;;;;18.29;63.30;101327.25;6319038;22;20010;-90
2022/10/26 08:24:13;;;;;;;4.15;1.73;;;;;;;18.26;63.50;101335.06;6292852;22;20007;-91
2022/10/26 08:26:40;;;;;;;2.88;1.40;;;;;;;18.27;63.54;101338.56;6345915;22;20002;-90
2022/10/26 08:29:05;;;;;;;2.75;1.23;;;;;;;18.29;63.63;101324.63;6319036;22;20037;-90
2022/10/26 08:31:31;;;;;;;2.47;1.20;;;;;;;18.30;63.64;101320.28;6293072;22;20010;-91
2022/10/26 08:33:56;;;;;;;3.70;1.60;;;;;;;18.32;63.50;101328.97;6344913;22;20010;-92
2022/10/26 08:36:23;;;;;;;3.88;1.60;;;;;;;18.32;63.60;101313.34;6292510;22;19995;-91
2022/10/26 08:38:48;;;;;;;2.70;1.60;;;;;;;18.33;63.52;101322.88;6344993;22;20010;-90
2022/10/26 08:41:14;;;;;;;4.82;1.58;;;;;;;18.34;63.31;101319.41;6345443;22;20013;-92
2022/10/26 08:43:48;;;;;;;2.45;1.30;;;;;;;18.35;63.66;101315.06;6344746;22;20002;-91
2022/10/26 08:46:23;;;;;;;2.08;1.20;;;;;;;18.34;63.55;101316.78;6344377;22;20311;-91
2022/10/26 08:48:54;;;;;;;2.85;1.40;;;;;;;18.32;63.42;101309.88;6372873;22;20002;-89
2022/10/26 08:51:34;;;;;;;3.20;1.40;;;;;;;18.35;63.49;101320.25;6344332;22;20431;-92
2022/10/26 08:54:35;;;;;;;2.42;1.30;;;;;;;18.35;63.43;101330.69;6370588;22;20014;-92
2022/10/26 08:57:10;;;;;;;3.47;1.42;;;;;;;18.33;63.36;101333.28;6333230;22;20007;-89
2022/10/26 08:59:59;;;;;;;3.22;1.33;;;;;;;18.36;63.53;101335.91;6356359;22;19986;-90
2022/10/26 09:02:24;;;;;;;2.65;1.40;;;;;;;18.36;63.53;101328.09;6339075;22;20007;-90
2022/10/26 09:04:52;;;;;;;2.15;1.20;;;;;;;18.37;63.38;101334.16;6318675;22;20041;-91
2022/10/26 09:07:50;;;;;;;3.15;1.40;;;;;;;18.36;63.61;101320.25;6344720;22;19998;-90
2022/10/26 09:10:30;;;;;;;3.60;1.58;;;;;;;18.37;63.42;101321.97;6344721;22;20430;-90
2022/10/26 09:13:06;;;;;;;3.30;1.50;;;;;;;18.36;63.47;101335.03;6344537;22;20491;-91
2022/10/26 09:15:32;;;;;;;2.88;1.30;;;;;;;18.35;63.54;101347.19;6346893;22;20010;-90
2022/10/26 09:18:14;;;;;;;2.33;1.20;;;;;;;18.34;63.66;101335.03;6345328;22;20058;-89
2022/10/26 09:20:46;;;;;;;2.85;1.20;;;;;;;18.33;63.38;101348.06;6346360;22;20018;-89
2022/10/26 09:23:39;;;;;;;2.08;1.25;;;;;;;18.34;63.37;101357.63;6346598;22;20010;-91
2022/10/26 09:26:12;;;;;;;3.07;1.33;;;;;;;18.33;63.53;101361.09;6346298;22;20002;-90
2022/10/26 09:28:40;;;;;;;3.03;1.40;;;;;;;18.33;63.44;101367.16;6373624;22;20010;-90
2022/10/26 09:31:12;;;;;;;2.10;1.25;;;;;;;18.31;63.48;101363.69;6346085;22;20010;-90
2022/10/26 09:33:39;;;;;;;2.60;1.17;;;;;;;18.32;63.44;101361.97;6346221;22;20017;-91
2022/10/26 09:36:17;;;;;;;3.60;1.20;;;;;;;18.31;63.51;101361.09;6345994;22;20013;-91
2022/10/26 09:38:49;;;;;;;1.75;1.00;;;;;;;18.30;63.37;101368.03;6346097;22;20018;-91
2022/10/26 09:41:38;;;;;;;2.15;1.20;;;;;;;18.29;63.14;101374.16;6373977;22;19998;-90
2022/10/26 09:44:27;;;;;;;2.47;1.08;;;;;;;18.30;63.44;101368.03;6360916;22;20067;-89
2022/10/26 09:47:26;;;;;;;3.40;1.38;;;;;;;18.29;63.35;101371.53;6349716;22;20006;-91
2022/10/26 09:50:13;;;;;;;2.40;1.20;;;;;;;18.28;63.42;101371.53;6348382;22;20026;-91
2022/10/26 09:52:39;;;;;;;2.13;1.13;;;;;;;18.28;63.55;101385.41;6346002;22;20030;-90
2022/10/26 09:55:05;;;;;;;2.10;1.15;;;;;;;18.27;63.57;101375.88;6295187;22;20018;-89
2022/10/26 09:57:31;;;;;;;1.92;1.08;;;;;;;18.27;63.43;101386.31;6294703;22;20017;-90
2022/10/26 09:59:56;;;;;;;3.22;1.13;;;;;;;18.28;63.55;101390.63;6321259;22;20101;-90
2022/10/26 10:02:47;;;;;;;1.70;1.08;;;;;;;18.28;63.54;101392.38;6320652;22;20441;-90
2022/10/26 10:05:30;;;;;;;1.70;1.10;;;;;;;18.28;63.57;101398.44;6346278;22;20429;-92
2022/10/26 10:08:23;;;;;;;1.70;1.00;;;;;;;18.28;63.41;101401.06;6372394;22;20043;-90
2022/10/26 10:11:14;;;;;;;2.85;1.08;;;;;;;18.29;63.30;101407.13;6346808;22;20014;-90
2022/10/26 10:13:42;;;;;;;2.03;1.10;;;;;;;18.29;63.47;101400.19;6345812;22;20085;-89
2022/10/26 10:16:21;;;;;;;1.60;0.93;;;;;;;18.29;63.64;101417.53;6372712;22;20010;-92
2022/10/26 10:18:59;;;;;;;2.28;1.27;;;;;;;18.28;63.56;101427.09;6372487;22;20013;-90
2022/10/26 10:21:42;;;;;;;1.67;1.00;;;;;;;18.29;63.36;101431.47;6346472;22;20010;-91
2022/10/26 10:24:28;;;;;;;1.92;1.10;;;;;;;18.29;63.47;101448.81;6374465;22;20013;-90
2022/10/26 10:26:59;;;;;;;2.17;1.10;;;;;;;18.29;63.54;101454.03;6363478;22;20014;-89
2022/10/26 10:29:33;;;;;;;2.28;1.10;;;;;;;18.27;63.58;101451.44;6372866;22;20006;-91
2022/10/26 10:32:01;;;;;;;2.08;1.10;;;;;;;18.29;63.53;101451.41;6372882;22;20010;-91
2022/10/26 10:34:31;;;;;;;1.85;0.98;;;;;;;18.29;63.55;101456.63;6345896;22;20014;-91
2022/10/26 10:36:58;;;;;;;2.00;1.20;;;;;;;18.29;63.41;101459.22;6320083;22;20009;-90
2022/10/26 10:39:42;;;;;;;1.77;1.00;;;;;;;18.27;63.48;101464.47;6345661;22;20076;-89
2022/10/26 10:42:15;;;;;;;3.10;0.93;;;;;;;18.27;63.31;101461.00;6320410;22;20021;-91
2022/10/26 10:44:42;;;;;;;1.67;0.95;;;;;;;18.30;63.36;101463.59;6346280;22;20013;-90
2022/10/26 10:47:30;;;;;;;1.90;0.98;;;;;;;18.33;63.35;101465.31;6320192;22;20025;-91
2022/10/26 10:50:06;;;;;;;2.78;0.93;;;;;;;18.33;63.60;101470.53;6346071;22;20442;-90
2022/10/26 10:52:34;;;;;;;1.88;0.93;;;;;;;18.32;63.49;101466.19;6345333;22;20024;-88
2022/10/26 10:55:12;;;;;;;2.22;0.90;;;;;;;18.31;63.48;101475.72;6319552;22;20006;-91
2022/10/26 10:58:03;;;;;;;2.13;1.00;;;;;;;18.32;63.40;101477.47;6373844;22;20047;-89
2022/10/26 11:00:33;;;;;;;2.00;0.90;;;;;;;18.34;63.38;101480.09;6346302;22;20010;-89
2022/10/26 11:03:15;;;;;;;2.53;0.98;;;;;;;18.34;63.38;101482.69;6345508;22;20006;-91
2022/10/26 11:06:10;;;;;;;2.03;0.90;;;;;;;18.34;63.53;101482.69;6346155;22;20006;-89
2022/10/26 11:08:44;;;;;;;2.67;1.10;;;;;;;18.35;63.60;101484.41;6363335;22;20014;-88
2022/10/26 11:11:15;;;;;;;1.98;1.00;;;;;;;18.35;63.35;101484.41;6342754;22;20453;-91
2022/10/26 11:14:06;;;;;;;3.17;1.00;;;;;;;18.36;63.45;101479.22;6345863;22;20067;-91
2022/10/26 11:16:38;;;;;;;2.03;1.00;;;;;;;18.34;63.49;101472.28;6346109;22;20002;-90
2022/10/26 11:19:14;;;;;;;1.88;1.20;;;;;;;18.35;63.33;101485.28;6345732;22;20088;-91
2022/10/26 11:21:44;;;;;;;1.73;1.10;;;;;;;18.34;63.38;101487.91;6349260;22;20010;-92
2022/10/26 11:24:13;;;;;;;2.17;1.05;;;;;;;18.33;63.32;101492.22;6371876;22;20459;-91
2022/10/26 11:26:45;;;;;;;2.50;1.00;;;;;;;18.33;63.59;101496.56;6346272;22;20006;-90
2022/10/26 11:29:16;;;;;;;1.30;0.80;;;;;;;18.33;63.44;101497.44;6345121;22;20048;-90
2022/10/26 11:31:50;;;;;;;1.42;0.90;;;;;;;18.32;63.43;101500.94;6345457;22;20038;-91
2022/10/26 11:34:29;;;;;;;1.70;0.90;;;;;;;18.35;63.32;101510.47;6345027;22;20006;-92
2022/10/26 11:37:04;;;;;;;1.88;1.00;;;;;;;18.35;63.46;101516.53;6345747;22;20341;-91
2022/10/26 11:39:42;;;;;;;1.65;1.00;;;;;;;18.35;63.28;101513.06;6358764;22;20097;-90
2022/10/26 11:42:46;;;;;;;3.30;0.90;;;;;;;18.35;63.38;101511.34;6341105;22;20038;-90
2022/10/26 11:45:22;;;;;;;2.22;1.00;;;;;;;18.33;63.24;101513.06;6324847;22;20053;-93
2022/10/26 11:47:54;;;;;;;2.53;1.00;;;;;;;18.33;63.51;101517.41;6345090;22;19998;-91
2022/10/26 11:50:28;;;;;;;1.65;0.98;;;;;;;18.34;63.19;101512.22;6355365;22;19982;-85
2022/10/26 11:53:01;;;;;;;2.05;1.00;;;;;;;18.33;63.41;101512.22;6353980;22;20380;-91
2022/10/26 11:55:28;;;;;;;2.45;1.10;;;;;;;18.35;63.51;101513.06;6345476;22;20009;-90
2022/10/26 11:57:54;;;;;;;2.10;1.00;;;;;;;18.36;63.56;101514.84;6373069;22;20005;-91
2022/10/26 12:00:21;;;;;;;2.38;0.90;;;;;;;18.35;63.37;101521.75;6345770;22;20085;-91
2022/10/26 12:02:52;;;;;;;1.58;0.85;;;;;;;18.36;63.11;101525.25;6293215;22;20002;-89
2022/10/26 12:05:39;;;;;;;2.40;0.93;;;;;;;18.37;63.35;101524.38;6347157;22;20047;-90
2022/10/26 12:08:12;;;;;;;1.85;0.93;;;;;;;18.38;63.49;101526.09;6344908;22;20018;-91
2022/10/26 12:10:42;;;;;;;3.22;1.00;;;;;;;18.37;63.43;101519.16;6373276;22;19994;-90
2022/10/26 12:13:30;;;;;;;2.30;1.00;;;;;;;18.42;63.22;101525.22;6373114;22;19998;-92
2022/10/26 12:16:04;;;;;;;1.75;0.88;;;;;;;18.40;63.16;101530.44;6345700;22;20013;-91
2022/10/26 12:18:38;;;;;;;1.90;0.80;;;;;;;18.40;63.41;101532.16;6372875;22;20003;-90
2022/10/26 12:21:06;;;;;;;2.35;1.00;;;;;;;18.39;63.32;101530.44;6345798;22;20096;-90
2022/10/26 12:24:15;;;;;;;1.88;0.82;;;;;;;18.39;63.39;101546.94;6345093;22;20021;-92
2022/10/26 12:26:50;;;;;;;2.78;0.90;;;;;;;18.40;63.30;101547.81;6317353;22;20034;-91
2022/10/26 12:29:21;;;;;;;2.78;1.10;;;;;;;18.39;63.36;101530.44;6373154;22;19994;-91
2022/10/26 12:31:47;;;;;;;1.95;1.00;;;;;;;18.39;63.45;101539.13;6346236;22;20032;-92
2022/10/26 12:34:14;;;;;;;2.13;0.93;;;;;;;18.38;63.37;101529.59;6338758;22;19998;-90
2022/10/26 12:36:47;;;;;;;2.67;1.02;;;;;;;18.39;63.28;101536.50;6319871;22;20017;-91
2022/10/26 12:39:34;;;;;;;2.03;1.00;;;;;;;18.38;63.45;101540.00;6318783;22;20016;-91
2022/10/26 12:42:09;;;;;;;1.63;0.70;;;;;;;18.39;63.47;101540.88;6348737;22;20033;-91
2022/10/26 12:44:47;;;;;;;1.95;1.00;;;;;;;18.39;63.42;101548.69;6345558;22;20010;-91
2022/10/26 12:47:27;;;;;;;2.80;1.10;;;;;;;18.39;63.32;101544.34;6345066;22;20006;-92
2022/10/26 12:50:05;;;;;;;3.80;1.10;;;;;;;18.40;63.37;101558.22;6344695;22;20085;-90
2022/10/26 12:52:49;;;;;;;2.92;0.90;;;;;;;18.40;63.38;101566.94;6344991;22;20533;-90
2022/10/26 12:55:44;;;;;;;1.50;0.80;;;;;;;18.40;63.60;101563.44;6346510;22;20090;-90
2022/10/26 12:58:31;;;;;;;1.30;0.80;;;;;;;18.42;63.52;101562.59;6356650;22;20017;-91
2022/10/26 13:00:56;;;;;;;2.08;0.93;;;;;;;18.41;63.37;101553.03;6375146;22;19998;-91
2022/10/26 13:03:28;;;;;;;3.40;1.10;;;;;;;18.41;63.54;101553.03;6346995;22;20059;-91
2022/10/26 13:06:27;;;;;;;2.65;0.88;;;;;;;18.42;63.40;101561.69;6346889;22;20002;-90
2022/10/26 13:08:55;;;;;;;2.28;0.90;;;;;;;18.42;63.33;101566.91;6346909;22;20093;-92
2022/10/26 13:11:29;;;;;;;1.70;0.80;;;;;;;18.40;63.54;101559.13;6346881;22;20092;-90
2022/10/26 13:14:00;;;;;;;3.95;1.10;;;;;;;18.41;63.51;101559.97;6347470;22;20417;-90
2022/10/26 13:16:27;;;;;;;2.55;0.95;;;;;;;18.40;63.73;101555.63;6361676;22;20003;-89